.
WxDataArchive / Data Records for 2012-04-21
2012-04-20 April 2012 2012-04-22

Data Records for Saturday, 21 April 2012

Time	Temp	Chill	HIndex	Humid	Dewpt	 Wind 	HiWind	WindDir	Rain 	Barom 
-----	----	-----	------	-----	-----	------	------	-------	-----	----- 
00:00	42.5	42.5	42.5	93	40.6	1	3	338	0.00	29.861 
00:05	42.3	42.3	42.3	93	40.4	1	5	68	0.00	29.861 
00:10	42.2	42.2	42.2	93	40.3	1	3	270	0.00	29.861 
00:15	41.9	41.9	41.9	93	40.0	1	4	292	0.00	29.864 
00:20	41.6	41.6	41.6	93	39.7	1	3	0	0.00	29.864 
00:25	41.5	41.5	41.5	93	39.6	1	3	45	0.00	29.864 
00:30	41.5	41.5	41.5	93	39.6	1	3	0	0.00	29.867 
00:35	41.3	41.3	41.3	93	39.4	1	2	338	0.00	29.867 
00:40	41.3	41.3	41.3	93	39.4	1	4	135	0.00	29.867 
00:45	41.3	41.3	41.3	92	39.2	1	5	158	0.00	29.874 
00:50	41.2	41.2	41.2	92	39.1	1	4	45	0.00	29.874 
00:55	41.1	41.1	41.1	92	39.0	0	4	315	0.00	29.874 
01:00	41.1	41.1	41.1	92	39.0	0	5	315	0.00	29.870 
01:05	40.9	40.9	40.9	92	38.8	0	2	22	0.00	29.870 
01:10	40.9	40.9	40.9	91	38.5	0	3	22	0.00	29.870 
01:15	40.9	40.9	40.9	91	38.5	1	5	248	0.00	29.879 
01:20	40.9	40.9	40.9	91	38.5	0	1	135	0.00	29.879 
01:25	40.8	40.8	40.8	91	38.4	0	2	112	0.00	29.879 
01:30	40.8	40.8	40.8	90	38.1	1	3	22	0.00	29.882 
01:35	40.8	40.8	40.8	90	38.1	0	2	292	0.00	29.882 
01:40	40.8	40.8	40.8	90	38.1	0	2	22	0.00	29.882 
01:45	40.8	40.8	40.8	90	38.1	0	4	135	0.00	29.883 
01:50	40.8	40.8	40.8	89	37.8	0	1	22	0.00	29.883 
01:55	40.8	40.8	40.8	89	37.8	0	3	22	0.00	29.883 
02:00	40.8	40.8	40.8	89	37.8	1	5	135	0.00	29.884 
02:05	40.6	40.6	40.6	89	37.6	0	2	135	0.00	29.884 
02:10	40.5	40.5	40.5	88	37.2	0	4	158	0.00	29.884 
02:15	40.3	40.3	40.3	88	37.0	1	5	338	0.00	29.888 
02:20	40.3	40.3	40.3	88	37.0	0	3	270	0.00	29.888 
02:25	40.3	40.3	40.3	88	37.0	0	1	270	0.00	29.888 
02:30	40.5	40.5	40.5	88	37.2	0	1	270	0.00	29.889 
02:35	40.3	40.3	40.3	88	37.0	0	1	270	0.00	29.889 
02:40	40.3	40.3	40.3	88	37.0	0	2	270	0.00	29.889 
02:45	40.3	40.3	40.3	89	37.3	0	2	270	0.00	29.894 
02:50	40.2	40.2	40.2	88	36.9	1	3	270	0.00	29.894 
02:55	40.2	40.2	40.2	88	36.9	0	3	292	0.00	29.894 
03:00	40.2	40.2	40.2	88	36.9	0	2	338	0.00	29.901 
03:05	40.2	40.2	40.2	88	36.9	0	1	338	0.00	29.901 
03:10	40.2	40.2	40.2	88	36.9	0	2	338	0.00	29.901 
03:15	40.1	40.1	40.1	88	36.8	0	3	315	0.00	29.906 
03:20	40.1	40.1	40.1	87	36.5	0	3	0	0.00	29.906 
03:25	40.1	40.1	40.1	87	36.5	0	2	0	0.00	29.906 
03:30	40.1	40.1	40.1	87	36.5	0	3	292	0.00	29.909 
03:35	40.1	40.1	40.1	87	36.5	0	3	292	0.00	29.909 
03:40	40.1	40.1	40.1	87	36.5	0	4	292	0.00	29.909 
03:45	40.1	40.1	40.1	87	36.5	0	2	292	0.00	29.905 
03:50	40.1	40.1	40.1	87	36.5	0	1	292	0.00	29.905 
03:55	40.1	40.1	40.1	87	36.5	0	4	270	0.00	29.905 
04:00	39.9	39.9	39.9	87	36.4	0	2	292	0.00	29.906 
04:05	40.1	40.1	40.1	87	36.5	0	2	292	0.00	29.906 
04:10	40.1	40.1	40.1	87	36.5	0	2	292	0.00	29.906 
04:15	39.9	39.9	39.9	86	36.1	0	3	270	0.00	29.913 
04:20	40.1	40.1	40.1	86	36.3	0	2	135	0.00	29.913 
04:25	39.9	39.9	39.9	86	36.1	0	2	45	0.00	29.913 
04:30	40.1	40.1	40.1	86	36.3	0	3	22	0.00	29.914 
04:35	40.1	40.1	40.1	86	36.3	0	3	0	0.00	29.914 
04:40	40.1	40.1	40.1	86	36.3	0	2	0	0.00	29.914 
04:45	40.1	40.1	40.1	86	36.3	0	1	315	0.00	29.915 
04:50	40.1	40.1	40.1	86	36.3	0	3	22	0.00	29.915 
04:55	40.1	40.1	40.1	86	36.3	1	3	135	0.00	29.915 
05:00	40.1	40.1	40.1	86	36.3	0	2	315	0.00	29.915 
05:05	40.1	40.1	40.1	86	36.3	0	1	315	0.00	29.915 
05:10	40.1	40.1	40.1	86	36.3	0	1	315	0.00	29.915 
05:15	40.1	40.1	40.1	86	36.3	0	1	315	0.00	29.921 
05:20	40.1	40.1	40.1	86	36.3	0	1	315	0.00	29.921 
05:25	40.1	40.1	40.1	86	36.3	0	2	315	0.00	29.921 
05:30	40.1	40.1	40.1	85	36.0	0	2	315	0.00	29.924 
05:35	40.1	40.1	40.1	86	36.3	0	2	315	0.00	29.924 
05:40	40.1	40.1	40.1	86	36.3	0	2	315	0.01	29.924 
05:45	40.1	40.1	40.1	85	36.0	0	2	315	0.00	29.927 
05:50	40.1	40.1	40.1	85	36.0	0	1	315	0.00	29.927 
05:55	40.1	40.1	40.1	85	36.0	0	1	315	0.00	29.927 
06:00	39.9	39.9	39.9	85	35.8	0	2	315	0.00	29.930 
06:05	39.9	39.9	39.9	84	35.5	0	2	315	0.00	29.930 
06:10	39.9	39.9	39.9	84	35.5	0	1	315	0.00	29.930 
06:15	39.9	39.9	39.9	84	35.5	1	3	315	0.00	29.933 
06:20	39.9	39.9	39.9	84	35.5	0	2	315	0.00	29.933 
06:25	39.9	39.9	39.9	84	35.5	0	2	315	0.00	29.933 
06:30	39.9	39.9	39.9	84	35.5	1	3	270	0.00	29.926 
06:35	39.9	39.9	39.9	83	35.2	1	3	0	0.00	29.926 
06:40	39.9	39.9	39.9	83	35.2	0	2	270	0.00	29.926 
06:45	39.9	39.9	39.9	83	35.2	0	2	270	0.00	29.924 
06:50	39.9	39.9	39.9	83	35.2	0	1	270	0.00	29.924 
06:55	39.9	39.9	39.9	83	35.2	0	2	270	0.00	29.924 
07:00	39.9	39.9	39.9	83	35.2	0	2	270	0.00	29.930 
07:05	39.9	39.9	39.9	83	35.2	0	2	270	0.00	29.930 
07:10	39.9	39.9	39.9	82	34.9	0	3	270	0.00	29.930 
07:15	39.9	39.9	39.9	82	34.9	0	2	0	0.00	29.939 
07:20	39.9	39.9	39.9	82	34.9	0	3	135	0.00	29.939 
07:25	39.9	39.9	39.9	81	34.6	0	2	135	0.00	29.939 
07:30	39.9	39.9	39.9	81	34.6	0	1	135	0.00	29.938 
07:35	39.9	39.9	39.9	81	34.6	0	2	135	0.00	29.938 
07:40	40.1	40.1	40.1	81	34.7	0	2	45	0.00	29.938 
07:45	40.1	40.1	40.1	81	34.7	0	4	90	0.00	29.946 
07:50	40.1	40.1	40.1	81	34.7	0	4	90	0.00	29.946 
07:55	40.1	40.1	40.1	80	34.4	0	2	68	0.00	29.946 
08:00	40.2	40.2	40.2	80	34.5	0	3	90	0.00	29.947 
08:05	40.2	40.2	40.2	80	34.5	0	2	90	0.00	29.947 
08:10	40.3	40.3	40.3	80	34.6	0	2	292	0.00	29.947 
08:15	40.5	40.5	40.5	80	34.8	0	2	315	0.00	29.953 
08:20	40.5	40.5	40.5	80	34.8	0	1	315	0.00	29.953 
08:25	40.5	40.5	40.5	79	34.5	0	1	315	0.00	29.953 
08:30	40.6	40.6	40.6	79	34.6	0	1	315	0.00	29.955 
08:35	40.6	40.6	40.6	80	34.9	0	1	315	0.00	29.955 
08:40	40.6	40.6	40.6	80	34.9	0	2	338	0.00	29.955 
08:45	40.8	40.8	40.8	80	35.1	0	2	45	0.00	29.958 
08:50	40.8	40.8	40.8	80	35.1	0	2	45	0.00	29.958 
08:55	41.1	41.1	41.1	79	35.1	0	3	68	0.00	29.958 
09:00	41.1	41.1	41.1	77	34.4	1	7	45	0.00	29.964 
09:05	41.2	41.2	41.2	77	34.5	0	3	45	0.00	29.964 
09:10	41.2	41.2	41.2	77	34.5	0	2	90	0.00	29.964 
09:15	41.3	41.3	41.3	77	34.6	0	2	68	0.00	29.964 
09:20	41.5	41.5	41.5	76	34.5	0	3	22	0.00	29.964 
09:25	41.8	41.8	41.8	77	35.1	0	2	22	0.00	29.964 
09:30	41.9	41.9	41.9	77	35.2	0	3	22	0.00	29.961 
09:35	41.8	41.8	41.8	76	34.8	0	2	0	0.00	29.961 
09:40	41.8	41.8	41.8	76	34.8	0	2	0	0.00	29.961 
09:45	41.9	41.9	41.9	75	34.6	0	2	0	0.00	29.970 
09:50	41.9	41.9	41.9	74	34.2	0	2	0	0.00	29.970 
09:55	41.9	41.9	41.9	74	34.2	1	3	270	0.00	29.970 
10:00	41.9	41.9	41.9	73	33.9	1	4	315	0.00	29.973 
10:05	41.9	41.9	41.9	73	33.9	0	2	270	0.00	29.973 
10:10	42.8	42.8	42.8	74	35.1	0	3	0	0.00	29.973 
10:15	43.5	43.5	43.5	73	35.4	1	4	112	0.00	29.971 
10:20	43.9	43.9	43.9	70	34.8	1	4	112	0.00	29.971 
10:25	44.1	44.1	44.1	72	35.7	1	4	112	0.00	29.971 
10:30	44.2	44.2	44.2	71	35.4	0	2	68	0.00	29.970 
10:35	43.8	43.8	43.8	70	34.7	1	5	270	0.00	29.970 
10:40	43.6	43.6	43.6	73	35.5	0	2	270	0.00	29.970 
10:45	43.3	43.3	43.3	71	34.5	0	3	292	0.00	29.973 
10:50	43.5	43.5	43.5	72	35.1	0	4	292	0.00	29.973 
10:55	43.8	43.8	43.8	73	35.7	0	3	135	0.00	29.973 
11:00	43.8	43.8	43.8	72	35.4	0	2	90	0.00	29.985 
11:05	43.5	43.5	43.5	71	34.7	1	2	90	0.00	29.985 
11:10	43.2	43.2	43.2	70	34.1	1	3	338	0.00	29.985 
11:15	43.2	43.2	43.2	70	34.1	1	4	292	0.00	29.987 
11:20	43.3	43.3	43.3	72	34.9	0	3	315	0.00	29.987 
11:25	43.6	43.6	43.6	71	34.8	0	2	315	0.00	29.987 
11:30	43.6	43.6	43.6	70	34.5	0	3	315	0.00	29.985 
11:35	43.8	43.8	43.8	70	34.7	0	2	315	0.00	29.985 
11:40	43.9	43.9	43.9	69	34.4	1	4	270	0.00	29.985 
11:45	43.9	43.9	43.9	68	34.0	0	2	202	0.00	29.984 
11:50	44.2	44.2	44.2	68	34.3	1	4	112	0.00	29.984 
11:55	44.5	44.5	44.5	69	35.0	1	4	112	0.00	29.984 
12:00	45.7	45.7	45.7	69	36.1	2	7	112	0.00	29.981 
12:05	46.5	46.5	46.5	66	35.8	2	6	90	0.00	29.981 
12:10	47.0	47.0	47.0	66	36.2	2	5	112	0.00	29.981 
12:15	47.7	47.7	47.7	64	36.1	2	6	112	0.00	29.970 
12:20	48.3	48.3	48.3	62	35.9	1	5	112	0.00	29.970 
12:25	48.6	48.6	48.6	64	37.0	1	5	338	0.00	29.970 
12:30	48.6	48.6	48.6	63	36.6	1	5	112	0.00	29.964 
12:35	48.8	48.8	48.8	64	37.2	1	5	90	0.00	29.964 
12:40	48.8	48.8	48.8	62	36.4	0	2	90	0.00	29.964 
12:45	48.3	48.3	48.3	63	36.3	0	2	338	0.00	29.966 
12:50	48.3	48.3	48.3	64	36.7	0	2	338	0.00	29.966 
12:55	48.3	48.3	48.3	61	35.5	1	4	292	0.00	29.966 
13:00	48.9	48.9	48.9	63	36.9	1	6	112	0.00	29.953 
13:05	49.6	49.6	49.6	61	36.7	2	6	90	0.00	29.953 
13:10	49.9	49.9	49.9	62	37.4	1	4	68	0.00	29.953 
13:15	49.8	49.8	49.8	60	36.5	1	3	68	0.00	29.966 
13:20	49.4	49.4	49.4	59	35.7	1	2	45	0.00	29.966 
13:25	49.5	49.5	49.5	62	37.0	0	3	292	0.00	29.966 
13:30	49.5	49.5	49.5	60	36.2	0	3	112	0.00	29.962 
13:35	49.5	49.5	49.5	60	36.2	0	3	112	0.00	29.962 
13:40	49.8	49.8	49.8	60	36.5	0	2	112	0.00	29.962 
13:45	49.9	49.9	49.9	59	36.1	1	5	112	0.00	29.954 
13:50	50.8	50.8	50.8	62	38.3	1	6	90	0.00	29.954 
13:55	51.6	51.6	51.6	58	37.3	1	6	90	0.00	29.954 
14:00	52.3	52.3	52.3	56	37.1	1	5	135	0.00	29.950 
14:05	52.8	52.8	52.8	56	37.5	2	6	90	0.00	29.950 
14:10	52.8	52.8	52.8	59	38.9	1	5	135	0.00	29.950 
14:15	52.9	52.9	52.9	55	37.2	1	4	45	0.00	29.952 
14:20	52.9	52.9	52.9	54	36.7	1	3	225	0.00	29.952 
14:25	53.5	53.5	53.5	58	39.1	1	3	158	0.00	29.952 
14:30	53.3	53.3	53.3	56	38.0	1	6	90	0.00	29.948 
14:35	52.9	52.9	52.9	52	35.8	1	4	90	0.00	29.948 
14:40	52.3	52.3	52.3	54	36.2	1	4	112	0.00	29.948 
14:45	52.6	52.6	52.6	54	36.4	1	4	270	0.00	29.950 
14:50	53.2	53.2	53.2	55	37.5	1	4	112	0.00	29.950 
14:55	53.5	53.5	53.5	54	37.3	1	4	45	0.00	29.950 
15:00	53.6	53.6	53.6	53	36.9	1	2	68	0.00	29.952 
15:05	54.2	54.2	54.2	51	36.5	0	1	68	0.00	29.952 
15:10	54.2	54.2	54.2	50	36.0	0	1	68	0.00	29.952 
15:15	53.8	53.8	53.8	52	36.6	1	4	0	0.00	29.950 
15:20	54.1	54.1	54.1	49	35.4	1	5	112	0.00	29.950 
15:25	54.4	54.4	54.4	50	36.2	1	4	112	0.00	29.950 
15:30	54.4	54.4	54.4	52	37.1	1	4	270	0.00	29.949 
15:35	54.7	54.7	54.7	51	36.9	2	6	90	0.00	29.949 
15:40	54.5	54.5	54.5	52	37.2	1	5	112	0.00	29.949 
15:45	54.2	54.2	54.2	49	35.5	0	2	112	0.00	29.950 
15:50	54.5	54.5	54.5	52	37.2	1	4	112	0.00	29.950 
15:55	54.2	54.2	54.2	48	34.9	1	7	112	0.00	29.950 
16:00	54.2	54.2	54.2	51	36.5	1	5	90	0.00	29.950 
16:05	54.2	54.2	54.2	48	34.9	0	3	135	0.00	29.950 
16:10	53.8	53.8	53.8	47	34.0	0	2	135	0.00	29.950 
16:15	53.8	53.8	53.8	49	35.1	0	2	22	0.00	29.944 
16:20	54.4	54.4	54.4	44	32.9	0	1	22	0.00	29.944 
16:25	55.0	55.0	55.0	47	35.1	1	4	90	0.00	29.944 
16:30	55.3	55.3	55.3	46	34.9	1	4	90	0.00	29.934 
16:35	55.1	55.1	55.1	46	34.7	2	5	90	0.00	29.934 
16:40	54.5	54.5	54.5	47	34.7	1	4	90	0.00	29.934 
16:45	54.1	54.1	54.1	49	35.4	1	5	90	0.00	29.941 
16:50	53.8	53.8	53.8	47	34.0	0	3	90	0.00	29.941 
16:55	53.9	53.9	53.9	48	34.7	1	4	45	0.00	29.941 
17:00	54.1	54.1	54.1	46	33.8	0	1	22	0.00	29.943 
17:05	54.4	54.4	54.4	46	34.1	0	2	22	0.00	29.943 
17:10	54.7	54.7	54.7	45	33.8	1	4	135	0.00	29.943 
17:15	54.7	54.7	54.7	46	34.3	2	5	90	0.00	29.943 
17:20	54.7	54.7	54.7	47	34.9	0	1	90	0.00	29.943 
17:25	54.4	54.4	54.4	47	34.6	1	3	112	0.00	29.943 
17:30	54.2	54.2	54.2	47	34.4	0	2	112	0.00	29.939 
17:35	54.1	54.1	54.1	46	33.8	1	4	112	0.00	29.939 
17:40	54.1	54.1	54.1	46	33.8	2	6	112	0.00	29.939 
17:45	53.6	53.6	53.6	46	33.3	2	6	112	0.00	29.937 
17:50	53.3	53.3	53.3	46	33.1	2	5	112	0.00	29.937 
17:55	53.6	53.6	53.6	45	32.8	1	5	112	0.00	29.937 
18:00	53.8	53.8	53.8	46	33.5	1	5	112	0.00	29.937 
18:05	53.6	53.6	53.6	45	32.8	1	4	90	0.00	29.937 
18:10	53.3	53.3	53.3	45	32.5	2	4	90	0.00	29.937 
18:15	53.2	53.2	53.2	48	34.0	1	4	90	0.00	29.947 
18:20	53.1	53.1	53.1	46	32.9	1	4	90	0.00	29.947 
18:25	53.1	53.1	53.1	46	32.9	1	4	90	0.00	29.947 
18:30	53.1	53.1	53.1	50	35.0	2	5	90	0.00	29.946 
18:35	53.1	53.1	53.1	50	35.0	3	9	112	0.00	29.946 
18:40	52.8	52.8	52.8	52	35.7	1	6	112	0.00	29.946 
18:45	52.5	52.5	52.5	51	34.9	2	4	90	0.00	29.947 
18:50	52.5	52.5	52.5	51	34.9	1	5	90	0.00	29.947 
18:55	52.3	52.3	52.3	49	33.7	2	6	90	0.00	29.947 
19:00	52.3	52.3	52.3	51	34.7	2	5	68	0.00	29.946 
19:05	52.5	52.5	52.5	50	34.4	2	6	68	0.00	29.946 
19:10	52.2	52.2	52.2	50	34.1	3	8	90	0.00	29.946 
19:15	52.0	52.0	52.0	52	34.9	2	4	90	0.00	29.952 
19:20	51.7	51.7	51.7	51	34.2	2	7	90	0.00	29.952 
19:25	51.3	51.3	51.3	51	33.8	2	6	90	0.00	29.952 
19:30	51.0	51.0	51.0	52	34.0	3	8	90	0.00	29.950 
19:35	50.8	50.8	50.8	52	33.8	2	5	68	0.00	29.950 
19:40	50.7	50.7	50.7	51	33.2	2	5	112	0.00	29.950 
19:45	50.5	50.5	50.5	52	33.5	2	4	112	0.00	29.956 
19:50	50.4	50.4	50.4	52	33.4	1	3	90	0.00	29.956 
19:55	50.2	50.2	50.2	53	33.7	1	4	90	0.00	29.956 
20:00	49.9	49.9	49.9	54	33.9	1	4	90	0.00	29.960 
20:05	49.8	49.8	49.8	54	33.8	1	4	90	0.00	29.960 
20:10	49.6	49.6	49.6	54	33.6	1	2	90	0.00	29.960 
20:15	49.5	49.5	49.5	54	33.6	1	3	90	0.00	29.962 
20:20	49.2	49.2	49.2	55	33.7	1	3	90	0.00	29.962 
20:25	49.1	49.1	49.1	55	33.6	1	4	90	0.00	29.962 
20:30	48.9	48.9	48.9	56	33.9	0	2	90	0.00	29.967 
20:35	48.8	48.8	48.8	57	34.3	0	2	90	0.00	29.967 
20:40	48.5	48.5	48.5	57	34.0	0	2	90	0.00	29.967 
20:45	48.3	48.3	48.3	58	34.2	0	0	---	0.00	29.970 
20:50	48.0	48.0	48.0	60	34.8	0	0	---	0.00	29.970 
20:55	47.7	47.7	47.7	60	34.5	0	0	---	0.00	29.970 
21:00	47.4	47.4	47.4	61	34.6	0	0	---	0.00	29.974 
21:05	47.1	47.1	47.1	61	34.4	0	0	---	0.00	29.974 
21:10	46.8	46.8	46.8	62	34.5	0	0	---	0.00	29.974 
21:15	46.5	46.5	46.5	63	34.6	0	0	---	0.00	29.974 
21:20	46.2	46.2	46.2	64	34.7	0	0	---	0.00	29.974 
21:25	46.0	46.0	46.0	65	34.9	0	0	---	0.00	29.974 
21:30	45.8	45.8	45.8	65	34.7	0	0	---	0.00	29.977 
21:35	45.5	45.5	45.5	65	34.4	0	0	---	0.00	29.977 
21:40	45.4	45.4	45.4	66	34.7	0	0	---	0.00	29.977 
21:45	45.4	45.4	45.4	66	34.7	0	0	---	0.00	29.981 
21:50	45.4	45.4	45.4	65	34.3	0	0	---	0.00	29.981 
21:55	45.4	45.4	45.4	64	33.9	0	0	---	0.00	29.981 
22:00	45.5	45.5	45.5	64	34.0	0	0	---	0.00	29.980 
22:05	45.7	45.7	45.7	64	34.2	0	0	---	0.00	29.980 
22:10	45.8	45.8	45.8	63	33.9	0	1	90	0.00	29.980 
22:15	45.8	45.8	45.8	63	33.9	0	0	---	0.00	29.982 
22:20	45.8	45.8	45.8	62	33.5	0	0	---	0.00	29.982 
22:25	45.8	45.8	45.8	62	33.5	0	0	---	0.00	29.982 
22:30	45.7	45.7	45.7	62	33.4	0	1	90	0.00	29.982 
22:35	45.7	45.7	45.7	62	33.4	0	0	---	0.00	29.982 
22:40	45.5	45.5	45.5	62	33.2	0	1	90	0.00	29.982 
22:45	45.5	45.5	45.5	62	33.2	0	0	---	0.00	29.982 
22:50	45.4	45.4	45.4	63	33.6	0	1	90	0.00	29.982 
22:55	45.4	45.4	45.4	63	33.6	0	2	90	0.00	29.982 
23:00	45.2	45.2	45.2	63	33.4	0	1	90	0.00	29.985 
23:05	45.2	45.2	45.2	63	33.4	0	1	90	0.00	29.985 
23:10	45.1	45.1	45.1	63	33.3	0	1	90	0.00	29.985 
23:15	45.1	45.1	45.1	63	33.3	0	2	90	0.00	29.982 
23:20	45.1	45.1	45.1	62	32.9	1	4	135	0.00	29.982 
23:25	45.1	45.1	45.1	62	32.9	0	3	135	0.00	29.982 
23:30	45.1	45.1	45.1	62	32.9	0	1	135	0.00	29.983 
23:35	44.9	44.9	44.9	63	33.1	0	2	135	0.00	29.983 
23:40	44.9	44.9	44.9	63	33.1	0	2	135	0.00	29.983 
23:45	44.8	44.8	44.8	63	33.0	0	3	90	0.00	29.983 
23:50	44.6	44.6	44.6	63	32.8	1	5	90	0.00	29.983 
23:55	44.6	44.6	44.6	63	32.8	0	3	45	0.00	29.983 

CoCoRaHS
IN-AL-39
A2 Web Hosting
Creative Commons License
GoDaddy
search engine by freefind advanced

loaded 2018-11-15 15:55:45 • last modified 2010-11-18 10:43:29
Privacy PolicyDisclaimer
• wx.awcolley.com is powered by PmWiki v.2002016 •
• all content (unless otherwise noted) © 2018 A W Colley